Station Historical Data
Daily Summary for June 5, 2012 Units:  Metric    English   Both
« Previous Day
Next Day »
Daily Weekly Monthly Yearly Custom
  High: Low: Average:
Temperature: 26.5 °C 17.8 °C 21.8 °C
Dew Point: 20.6 °C 13.4 °C 17.7 °C
Humidity: 94% 52% 79%
Wind Speed: 19.3km/h 0km/h 6.1km/h
Wind Gust: 27.4km/h - -
Wind- - SE
Pressure: 1009.7 hPa 1004.6 hPa -
Precipitation: 11.18 mm    
Historical Graphs
 
 
Tabular Data for June 5, 2012
Time Temperature Dew Point Pressure Wind Wind Speed Wind Gust Humidity Rainfall Rate (Hourly) Conditions
00:00 21.7 °C 20.4 °C 1007 hPa SSW 1.6 km/h 3.2 km/h 92% 0 mm
00:05 21.7 °C 20.3 °C 1007 hPa SSE 3.2 km/h 3.2 km/h 92% 0 mm
00:10 21.6 °C 20.3 °C 1007.3 hPa SSE 3.2 km/h 4.8 km/h 92% 0 mm
00:15 21.6 °C 20.4 °C 1007.3 hPa SSE 1.6 km/h 4.8 km/h 93% 0 mm
00:20 21.5 °C 20.3 °C 1007.3 hPa SSW 1.6 km/h 3.2 km/h 93% 0 mm
00:25 21.6 °C 20.4 °C 1007.3 hPa South 3.2 km/h 3.2 km/h 93% 0 mm
00:30 21.6 °C 20.4 °C 1007.3 hPa SSE 4.8 km/h 6.4 km/h 93% 0 mm
00:35 21.7 °C 20.5 °C 1007 hPa SSE 3.2 km/h 6.4 km/h 93% 0 mm
00:40 21.7 °C 20.6 °C 1007 hPa SSW 3.2 km/h 4.8 km/h 93% 0 mm
00:45 21.8 °C 20.6 °C 1007 hPa SW 1.6 km/h 3.2 km/h 93% 0 mm
00:50 21.7 °C 20.6 °C 1007 hPa SW 3.2 km/h 4.8 km/h 93% 0 mm
00:55 21.7 °C 20.6 °C 1006.7 hPa SW 1.6 km/h 3.2 km/h 93% 0 mm
01:00 21.7 °C 20.5 °C 1006.7 hPa SW 4.8 km/h 4.8 km/h 93% 0 mm
01:05 21.7 °C 20.5 °C 1007 hPa SW 3.2 km/h 3.2 km/h 93% 0 mm
01:10 21.6 °C 20.4 °C 1006.7 hPa SW 1.6 km/h 8 km/h 93% 0 mm
01:15 21.6 °C 20.4 °C 1006.7 hPa SW 3.2 km/h 6.4 km/h 93% 0 mm
01:20 21.6 °C 20.4 °C 1006.7 hPa SSW 1.6 km/h 4.8 km/h 93% 0 mm
01:25 21.6 °C 20.4 °C 1006.7 hPa SE 3.2 km/h 4.8 km/h 93% 0 mm
01:30 21.6 °C 20.4 °C 1006.3 hPa SSW 3.2 km/h 6.4 km/h 93% 0 mm
01:35 21.6 °C 20.4 °C 1006.3 hPa SSE 4.8 km/h 8 km/h 93% 0 mm
01:40 21.7 °C 20.5 °C 1006.3 hPa SSW 1.6 km/h 3.2 km/h 93% 0 mm
01:45 21.7 °C 20.6 °C 1006.3 hPa SSE 3.2 km/h 6.4 km/h 93% 0 mm
01:50 21.7 °C 20.6 °C 1006 hPa SSE 1.6 km/h 3.2 km/h 93% 0 mm
01:55 21.7 °C 20.5 °C 1006 hPa Calm   1.6 km/h 93% 0 mm
02:00 21.6 °C 20.4 °C 1006 hPa Calm     93% 0 mm
02:05 21.6 °C 20.4 °C 1006 hPa Calm     93% 0 mm
02:10 21.6 °C 20.4 °C 1006.3 hPa SSE 1.6 km/h 1.6 km/h 93% 0 mm
02:15 21.6 °C 20.4 °C 1006.3 hPa East 1.6 km/h 3.2 km/h 93% 0 mm
02:21 21.4 °C 20.3 °C 1006 hPa NE 3.2 km/h 3.2 km/h 93% 0 mm
02:26 21.4 °C 20.3 °C 1006 hPa Calm     93% 0 mm
02:31 21.4 °C 20.2 °C 1006 hPa NNE 1.6 km/h 1.6 km/h 93% 0 mm
02:36 21.4 °C 20.2 °C 1005.6 hPa NNE 3.2 km/h 3.2 km/h 93% 0 mm
02:41 21.3 °C 20.1 °C 1005.6 hPa Calm   1.6 km/h 93% 0 mm
02:46 21.3 °C 20.2 °C 1005.3 hPa SSW 1.6 km/h 3.2 km/h 93% 0 mm
02:51 21.4 °C 20.3 °C 1005 hPa Calm   1.6 km/h 93% 0 mm
02:56 21.4 °C 20.3 °C 1005.3 hPa WSW 4.8 km/h 6.4 km/h 93% 0 mm
03:00 21.4 °C 20.2 °C 1005.3 hPa WSW 4.8 km/h 6.4 km/h 93% 0 mm
03:01 21.4 °C 20.2 °C 1005.3 hPa West 4.8 km/h 6.4 km/h 93% 0 mm
03:06 21.4 °C 20.3 °C 1005.3 hPa SSW 4.8 km/h 8 km/h 93% 0 mm
03:11 21.4 °C 20.3 °C 1005 hPa WSW 1.6 km/h 6.4 km/h 93% 0 mm
03:16 21.5 °C 20.3 °C 1005 hPa WSW 1.6 km/h 4.8 km/h 93% 0 mm
03:21 21.6 °C 20.4 °C 1005 hPa SW 3.2 km/h 3.2 km/h 93% 0 mm
03:26 21.6 °C 20.4 °C 1004.6 hPa SW 1.6 km/h 4.8 km/h 93% 0 mm
03:30 21.5 °C 20.3 °C 1005 hPa Calm   1.6 km/h 93% 0 mm
03:31 21.5 °C 20.3 °C 1005 hPa Calm   1.6 km/h 93% 0 mm
03:36 21.6 °C 20.4 °C 1005 hPa WSW 3.2 km/h 3.2 km/h 93% 0 mm
03:41 21.6 °C 20.4 °C 1005.3 hPa WSW 1.6 km/h 3.2 km/h 93% 0 mm
03:46 21.6 °C 20.4 °C 1005.3 hPa SW 3.2 km/h 6.4 km/h 93% 0 mm
03:51 21.6 °C 20.4 °C 1005.6 hPa SW 3.2 km/h 4.8 km/h 93% 0 mm
03:56 21.6 °C 20.4 °C 1005.6 hPa Calm   3.2 km/h 93% 0 mm
04:00 21.6 °C 20.4 °C 1006 hPa Calm   1.6 km/h 93% 0 mm
04:01 21.6 °C 20.4 °C 1006 hPa Calm   1.6 km/h 93% 0 mm
04:06 21.7 °C 20.5 °C 1005.6 hPa SW 1.6 km/h 3.2 km/h 93% 0 mm
04:11 21.7 °C 20.5 °C 1005.6 hPa South 1.6 km/h 3.2 km/h 93% 0 mm
04:16 21.6 °C 20.4 °C 1005.6 hPa Calm     93% 0 mm
04:22 21.7 °C 20.5 °C 1005.3 hPa Calm     93% 0 mm
04:27 21.7 °C 20.5 °C 1005.3 hPa Calm     93% 0 mm
04:32 21.7 °C 20.6 °C 1005.3 hPa SE 1.6 km/h 1.6 km/h 93% 0 mm
04:37 21.7 °C 20.6 °C 1005.3 hPa SW 3.2 km/h 3.2 km/h 93% 0 mm
04:42 21.7 °C 20.5 °C 1005.3 hPa West 1.6 km/h 4.8 km/h 93% 0 mm
04:47 21.7 °C 20.6 °C 1005.3 hPa WSW 3.2 km/h 4.8 km/h 93% 0 mm
04:52 21.7 °C 20.6 °C 1005.3 hPa West 4.8 km/h 4.8 km/h 93% 0 mm
04:57 21.8 °C 20.6 °C 1005.6 hPa WNW 9.7 km/h 12.9 km/h 93% 0 mm
05:02 21.8 °C 20.6 °C 1006.3 hPa WNW 16.1 km/h 19.3 km/h 93% 51.05 mm
05:07 21.6 °C 20.4 °C 1006.3 hPa NW 14.5 km/h 27.4 km/h 93% 43.94 mm
05:12 21.5 °C 20.3 °C 1006.3 hPa NNW 14.5 km/h 20.9 km/h 93% 32.51 mm
05:17 20.9 °C 19.8 °C 1006.3 hPa North 16.1 km/h 19.3 km/h 93% 6.1 mm
05:23 20.3 °C 19.2 °C 1006.3 hPa NNE 19.3 km/h 19.3 km/h 93% 3.56 mm
05:28 19.9 °C 18.7 °C 1006 hPa North 6.4 km/h 14.5 km/h 93% 1.52 mm
05:30 19.7 °C 18.6 °C 1006.3 hPa NNW 8 km/h 16.1 km/h 93% 1.02 mm
05:33 19.6 °C 18.4 °C 1006.3 hPa NNE 9.7 km/h 16.1 km/h 93% 1.02 mm
05:38 19.4 °C 18.3 °C 1006.7 hPa North 4.8 km/h 11.3 km/h 93% 0 mm
05:43 19.3 °C 18.2 °C 1006.3 hPa NNE 9.7 km/h 9.7 km/h 93% 0 mm
05:48 19.2 °C 18.1 °C 1006.3 hPa NE 8 km/h 11.3 km/h 93% 0 mm
05:53 19.1 °C 17.9 °C 1006.3 hPa NNE 8 km/h 9.7 km/h 93% 0 mm
05:58 18.9 °C 17.7 °C 1006.3 hPa North 6.4 km/h 11.3 km/h 93% 0 mm
06:00 18.7 °C 17.6 °C 1006.3 hPa NE 6.4 km/h 12.9 km/h 93% 0 mm
06:03 18.7 °C 17.5 °C 1006 hPa NNE 4.8 km/h 11.3 km/h 93% 0 mm
06:08 18.6 °C 17.4 °C 1006 hPa NE 4.8 km/h 14.5 km/h 93% 0 mm
06:13 18.4 °C 17.3 °C 1006 hPa NW 3.2 km/h 12.9 km/h 93% 0 mm
06:18 18.3 °C 17.2 °C 1006 hPa North 8 km/h 12.9 km/h 93% 0 mm
06:23 18.2 °C 17.2 °C 1006 hPa NE 9.7 km/h 12.9 km/h 94% 0 mm
06:28 18.1 °C 16.9 °C 1006 hPa NNE 8 km/h 14.5 km/h 93% 0 mm
06:30 18.1 °C 16.9 °C 1006 hPa North 11.3 km/h 16.1 km/h 93% 0 mm
06:33 18.1 °C 16.9 °C 1006 hPa ENE 8 km/h 14.5 km/h 93% 0 mm
06:39 18 °C 16.8 °C 1006.3 hPa NE 9.7 km/h 17.7 km/h 93% 0 mm
06:44 18 °C 16.8 °C 1006.3 hPa NE 9.7 km/h 11.3 km/h 93% 0 mm
06:49 17.9 °C 16.8 °C 1006.3 hPa North 9.7 km/h 12.9 km/h 93% 0 mm
06:54 17.9 °C 16.8 °C 1006.7 hPa NE 4.8 km/h 12.9 km/h 93% 0 mm
06:59 17.9 °C 16.8 °C 1006.7 hPa NE 8 km/h 11.3 km/h 93% 0 mm
07:00 17.9 °C 16.7 °C 1006.7 hPa NNE 3.2 km/h 9.7 km/h 93% 0 mm
07:04 17.9 °C 16.7 °C 1006.7 hPa NE 8 km/h 9.7 km/h 93% 0 mm
07:09 17.9 °C 16.7 °C 1007 hPa Calm   9.7 km/h 93% 0 mm
07:14 17.9 °C 16.7 °C 1007 hPa NNE 1.6 km/h 4.8 km/h 93% 0 mm
07:19 17.8 °C 16.7 °C 1007 hPa ENE 4.8 km/h 6.4 km/h 93% 0 mm
07:24 17.8 °C 16.7 °C 1007 hPa NNE 4.8 km/h 8 km/h 93% 0 mm
07:29 17.9 °C 16.7 °C 1007 hPa NE 4.8 km/h 6.4 km/h 93% 0 mm
07:30 17.9 °C 16.7 °C 1007 hPa NE 4.8 km/h 8 km/h 93% 0 mm
07:34 17.9 °C 16.7 °C 1007 hPa NE 4.8 km/h 6.4 km/h 93% 0 mm
07:39 17.9 °C 16.8 °C 1007 hPa NE 3.2 km/h 6.4 km/h 93% 0 mm
07:44 17.9 °C 16.8 °C 1007 hPa ENE 1.6 km/h 8 km/h 93% 0 mm
07:49 17.9 °C 16.8 °C 1007 hPa NNE 6.4 km/h 6.4 km/h 93% 0 mm
07:54 17.9 °C 16.8 °C 1007.3 hPa NNE 1.6 km/h 6.4 km/h 93% 0 mm
07:59 18 °C 16.8 °C 1007.3 hPa Calm   4.8 km/h 93% 0 mm
08:04 18.1 °C 16.9 °C 1007.3 hPa NE 3.2 km/h 6.4 km/h 93% 0 mm
08:09 18.1 °C 16.9 °C 1007.3 hPa NE 1.6 km/h 6.4 km/h 93% 0 mm
08:14 18.1 °C 16.9 °C 1007.3 hPa NNE 3.2 km/h 8 km/h 93% 0 mm
08:19 18.2 °C 17 °C 1007.7 hPa NE 4.8 km/h 9.7 km/h 93% 0 mm
08:24 18.2 °C 17.1 °C 1007.3 hPa NE 3.2 km/h 9.7 km/h 93% 0 mm
08:29 18.3 °C 17.1 °C 1007.3 hPa NNE 8 km/h 12.9 km/h 93% 0 mm
08:30 18.3 °C 17.1 °C 1007.7 hPa NE 6.4 km/h 12.9 km/h 93% 0 mm
08:34 18.3 °C 17.2 °C 1007.7 hPa ENE 3.2 km/h 8 km/h 93% 0 mm
08:40 18.3 °C 17.2 °C 1007.7 hPa East 6.4 km/h 8 km/h 93% 0 mm
08:45 18.4 °C 17.3 °C 1007.7 hPa ENE 1.6 km/h 6.4 km/h 93% 0 mm
08:50 18.5 °C 17.3 °C 1008 hPa ENE 6.4 km/h 8 km/h 93% 0 mm
08:55 18.6 °C 17.4 °C 1008 hPa NE 4.8 km/h 6.4 km/h 93% 0 mm
09:00 18.6 °C 17.4 °C 1008 hPa NE 9.7 km/h 9.7 km/h 93% 0 mm
09:05 18.6 °C 17.4 °C 1008 hPa East 8 km/h 9.7 km/h 93% 0 mm
09:10 18.7 °C 17.6 °C 1007.7 hPa NE 4.8 km/h 8 km/h 93% 0 mm
09:15 18.8 °C 17.7 °C 1007.7 hPa NE 8 km/h 12.9 km/h 93% 0 mm
09:20 18.9 °C 17.8 °C 1007.7 hPa NE 6.4 km/h 11.3 km/h 93% 0 mm
09:25 19 °C 17.7 °C 1008 hPa NE 9.7 km/h 12.9 km/h 92% 0 mm
09:30 18.9 °C 17.6 °C 1007.7 hPa NE 6.4 km/h 11.3 km/h 92% 0 mm
09:35 19 °C 17.7 °C 1007.7 hPa NE 9.7 km/h 14.5 km/h 92% 0 mm
09:40 19.1 °C 17.8 °C 1007.7 hPa NE 9.7 km/h 11.3 km/h 92% 0 mm
09:45 19.1 °C 17.8 °C 1007.7 hPa NNE 11.3 km/h 14.5 km/h 92% 0 mm
09:50 19.3 °C 17.9 °C 1007.7 hPa NNE 9.7 km/h 16.1 km/h 92% 0 mm
09:55 19.3 °C 17.8 °C 1007.7 hPa NE 11.3 km/h 14.5 km/h 91% 0 mm
10:00 19.5 °C 18 °C 1007.7 hPa NE 8 km/h 12.9 km/h 91% 0 mm
10:05 19.7 °C 18.2 °C 1008 hPa NE 6.4 km/h 11.3 km/h 91% 0 mm
10:10 19.9 °C 18.4 °C 1008 hPa NE 8 km/h 11.3 km/h 91% 0 mm
10:15 20 °C 18.3 °C 1008 hPa North 6.4 km/h 11.3 km/h 90% 0 mm
10:20 19.9 °C 18.1 °C 1008 hPa NE 4.8 km/h 14.5 km/h 89% 0 mm
10:25 20 °C 18.3 °C 1008 hPa NNE 8 km/h 12.9 km/h 90% 0 mm
10:30 20.1 °C 18.4 °C 1007.7 hPa NE 6.4 km/h 12.9 km/h 90% 0 mm
10:35 20.4 °C 18.7 °C 1007.7 hPa NE 8 km/h 11.3 km/h 90% 0 mm
10:40 20.5 °C 18.6 °C 1007.7 hPa NNW 3.2 km/h 12.9 km/h 89% 0 mm
10:45 20.6 °C 18.7 °C 1007.7 hPa NE 11.3 km/h 12.9 km/h 89% 0 mm
10:50 20.7 °C 18.8 °C 1007.7 hPa NNE 9.7 km/h 12.9 km/h 89% 0 mm
10:55 20.7 °C 18.6 °C 1008 hPa NE 12.9 km/h 16.1 km/h 88% 0 mm
11:00 21 °C 18.9 °C 1007.7 hPa NE 9.7 km/h 12.9 km/h 88% 0 mm
11:05 21.4 °C 18.9 °C 1007.7 hPa NE 16.1 km/h 17.7 km/h 86% 0 mm
11:11 21.7 °C 19.3 °C 1007.7 hPa NNE 8 km/h 17.7 km/h 86% 0 mm
11:16 21.8 °C 18.9 °C 1007.7 hPa NNE 8 km/h 17.7 km/h 84% 0 mm
11:21 21.9 °C 19.1 °C 1007.7 hPa NNE 9.7 km/h 14.5 km/h 84% 0 mm
11:26 21.6 °C 18.7 °C 1008 hPa NE 11.3 km/h 17.7 km/h 84% 0 mm
11:30 21.4 °C 18.8 °C 1008 hPa NE 4.8 km/h 12.9 km/h 85% 0 mm
11:31 21.4 °C 18.8 °C 1008 hPa NNE 8 km/h 12.9 km/h 85% 0 mm
11:36 21.3 °C 18.7 °C 1008 hPa North 9.7 km/h 11.3 km/h 85% 0 mm
11:41 21.2 °C 18.7 °C 1008 hPa NE 6.4 km/h 16.1 km/h 86% 0 mm
11:46 21.2 °C 18.7 °C 1008.4 hPa ENE 8 km/h 8 km/h 86% 0 mm
11:51 21.1 °C 18.9 °C 1008.4 hPa ENE 8 km/h 8 km/h 87% 0 mm
11:56 20.9 °C 18.4 °C 1008.4 hPa NNE 11.3 km/h 16.1 km/h 86% 0 mm
12:00 20.7 °C 18.4 °C 1008.4 hPa North 9.7 km/h 16.1 km/h 87% 0 mm
12:01 20.7 °C 18.4 °C 1008.4 hPa North 9.7 km/h 16.1 km/h 87% 0 mm
12:06 20.7 °C 18.4 °C 1008.4 hPa ENE 9.7 km/h 12.9 km/h 87% 0 mm
12:11 20.6 °C 18.6 °C 1008.4 hPa NNE 6.4 km/h 11.3 km/h 88% 0 mm
12:16 20.4 °C 18.4 °C 1008.7 hPa North 6.4 km/h 12.9 km/h 88% 0 mm
12:21 20.2 °C 18.3 °C 1008.4 hPa NE 8 km/h 11.3 km/h 89% 0 mm
12:26 20.1 °C 18.4 °C 1008.4 hPa NE 6.4 km/h 9.7 km/h 90% 0 mm
12:30 20.1 °C 18.4 °C 1008.4 hPa NE 4.8 km/h 6.4 km/h 90% 3.81 mm
12:31 20.1 °C 18.4 °C 1008.4 hPa NNE 4.8 km/h 6.4 km/h 90% 3.81 mm
12:36 20.1 °C 18.6 °C 1008.4 hPa NNE 4.8 km/h 4.8 km/h 91% 2.29 mm
12:41 20.1 °C 18.6 °C 1008.4 hPa NNE 4.8 km/h 6.4 km/h 91% 1.27 mm
12:46 20.2 °C 18.7 °C 1008.4 hPa North 3.2 km/h 8 km/h 91% 1.02 mm
12:51 20.4 °C 18.7 °C 1008.4 hPa NNE 1.6 km/h 3.2 km/h 90% 0 mm
12:56 20.6 °C 18.9 °C 1008.4 hPa ENE 3.2 km/h 4.8 km/h 90% 0 mm
13:00 20.8 °C 18.8 °C 1008.4 hPa NE 6.4 km/h 6.4 km/h 88% 0 mm
13:01 20.8 °C 18.6 °C 1008.4 hPa ENE 4.8 km/h 6.4 km/h 87% 0 mm
13:06 21.1 °C 18.9 °C 1008.4 hPa ENE 4.8 km/h 8 km/h 87% 0 mm
13:11 21.4 °C 18.8 °C 1008.4 hPa ENE 3.2 km/h 9.7 km/h 85% 0 mm
13:16 21.6 °C 18.8 °C 1008.4 hPa North 8 km/h 9.7 km/h 84% 0 mm
13:21 21.7 °C 18.3 °C 1008.4 hPa North 6.4 km/h 12.9 km/h 81% 0 mm
13:26 21.9 °C 18.7 °C 1008 hPa NE 6.4 km/h 14.5 km/h 82% 0 mm
13:30 22 °C 18.6 °C 1008 hPa NNE 9.7 km/h 14.5 km/h 81% 0 mm
13:32 22 °C 18.4 °C 1008 hPa North 14.5 km/h 20.9 km/h 80% 0 mm
13:37 22 °C 18 °C 1008 hPa NE 6.4 km/h 14.5 km/h 78% 0 mm
13:42 22.2 °C 17.9 °C 1008 hPa NE 11.3 km/h 12.9 km/h 77% 0 mm
13:47 22.2 °C 18.4 °C 1008 hPa NNE 9.7 km/h 11.3 km/h 79% 0 mm
13:52 22.3 °C 18.5 °C 1008 hPa NNE 3.2 km/h 8 km/h 79% 0 mm
13:57 22.4 °C 18.4 °C 1008 hPa NE 8 km/h 11.3 km/h 78% 0 mm
14:00 22.6 °C 18.6 °C 1008 hPa ENE 8 km/h 9.7 km/h 78% 0 mm
14:02 22.7 °C 18.7 °C 1008 hPa ENE 8 km/h 9.7 km/h 78% 0 mm
14:07 22.9 °C 18.7 °C 1008 hPa ENE 4.8 km/h 9.7 km/h 77% 0 mm
14:12 23.3 °C 18.8 °C 1007.7 hPa ENE 8 km/h 12.9 km/h 76% 0 mm
14:17 23.9 °C 19.2 °C 1007.7 hPa NE 8 km/h 8 km/h 75% 0 mm
14:23 24.3 °C 18 °C 1007.7 hPa NNE 6.4 km/h 17.7 km/h 68% 0 mm
14:28 24.5 °C 18.4 °C 1007.7 hPa NE 9.7 km/h 19.3 km/h 69% 0 mm
14:30 24.7 °C 19.1 °C 1007.7 hPa NNE 8 km/h 17.7 km/h 71% 0 mm
14:33 24.7 °C 18.1 °C 1007.7 hPa NNE 8 km/h 17.7 km/h 67% 0 mm
14:38 24.6 °C 17.3 °C 1007.7 hPa NE 12.9 km/h 27.4 km/h 64% 0 mm
14:43 24.6 °C 17.6 °C 1007.7 hPa NNW 6.4 km/h 19.3 km/h 65% 0 mm
14:48 24.8 °C 18.2 °C 1007.3 hPa NNW 8 km/h 16.1 km/h 67% 0 mm
14:53 24.9 °C 18.8 °C 1007.3 hPa NNW 9.7 km/h 20.9 km/h 69% 0 mm
14:58 24.9 °C 17.7 °C 1007.3 hPa NNE 11.3 km/h 17.7 km/h 64% 0 mm
15:00 24.9 °C 18.1 °C 1007.3 hPa NE 14.5 km/h 19.3 km/h 66% 0 mm
15:03 24.9 °C 17.4 °C 1007.3 hPa NE 12.9 km/h 19.3 km/h 63% 0 mm
15:08 25.1 °C 17.5 °C 1007.3 hPa NNE 8 km/h 17.7 km/h 63% 0 mm
15:13 25.2 °C 17.6 °C 1007.3 hPa NE 3.2 km/h 17.7 km/h 63% 0 mm
15:18 25.2 °C 17.9 °C 1007.3 hPa NE 14.5 km/h 17.7 km/h 64% 0 mm
15:23 25.3 °C 18.5 °C 1007 hPa NNE 11.3 km/h 11.3 km/h 66% 0 mm
15:28 25.4 °C 17.7 °C 1007.3 hPa NNW 12.9 km/h 17.7 km/h 62% 0 mm
15:30 25.4 °C 17.4 °C 1007 hPa NNW 12.9 km/h 19.3 km/h 61% 0 mm
15:33 25.4 °C 17.7 °C 1007 hPa North 16.1 km/h 19.3 km/h 62% 0 mm
15:38 25.5 °C 17.9 °C 1007.3 hPa North 16.1 km/h 17.7 km/h 63% 0 mm
15:43 25.7 °C 17.9 °C 1007 hPa North 14.5 km/h 19.3 km/h 62% 0 mm
15:48 25.8 °C 18.7 °C 1007 hPa NNW 9.7 km/h 14.5 km/h 65% 0 mm
15:53 25.8 °C 17.2 °C 1007 hPa NNE 8 km/h 19.3 km/h 59% 0 mm
15:58 25.8 °C 18.4 °C 1007 hPa North 14.5 km/h 24.1 km/h 64% 0 mm
16:00 25.8 °C 17.4 °C 1007 hPa North 12.9 km/h 19.3 km/h 60% 0 mm
16:03 25.7 °C 16.8 °C 1006.7 hPa NNE 9.7 km/h 19.3 km/h 58% 0 mm
16:08 25.8 °C 16.9 °C 1006.7 hPa NE 8 km/h 17.7 km/h 58% 0 mm
16:13 25.9 °C 17.8 °C 1006.7 hPa NE 11.3 km/h 12.9 km/h 61% 0 mm
16:18 25.9 °C 18.1 °C 1006.7 hPa North 8 km/h 14.5 km/h 62% 0 mm
16:23 26 °C 16.8 °C 1006.7 hPa NNE 6.4 km/h 14.5 km/h 57% 0 mm
16:28 26.2 °C 17.3 °C 1006.7 hPa NNE 14.5 km/h 22.5 km/h 58% 0 mm
16:30 26.1 °C 16.6 °C 1006.7 hPa NE 14.5 km/h 22.5 km/h 56% 0 mm
16:33 26.1 °C 17.2 °C 1006.7 hPa NW 16.1 km/h 16.1 km/h 58% 0 mm
16:38 26.1 °C 17.5 °C 1006.7 hPa NNW 9.7 km/h 11.3 km/h 59% 0 mm
16:43 26.2 °C 16.4 °C 1006.7 hPa North 17.7 km/h 19.3 km/h 55% 0 mm
16:48 26.2 °C 16.7 °C 1006.7 hPa NNW 6.4 km/h 12.9 km/h 56% 0 mm
16:53 26.3 °C 17.4 °C 1006.7 hPa NNE 6.4 km/h 14.5 km/h 58% 0 mm
16:58 26.2 °C 17.6 °C 1006.7 hPa NNW 6.4 km/h 14.5 km/h 59% 0 mm
17:00 26.3 °C 17.1 °C 1006.7 hPa North 8 km/h 12.9 km/h 57% 0 mm
17:03 26.3 °C 17.4 °C 1006.7 hPa NNE 8 km/h 17.7 km/h 58% 0 mm
17:09 26.5 °C 17.3 °C 1006.7 hPa NNW 16.1 km/h 16.1 km/h 57% 0 mm
17:14 26.3 °C 17.1 °C 1006.7 hPa North 4.8 km/h 14.5 km/h 57% 0 mm
17:19 26.3 °C 17.7 °C 1006.7 hPa NE 12.9 km/h 17.7 km/h 59% 0 mm
17:24 26.4 °C 16.9 °C 1006.7 hPa NE 3.2 km/h 11.3 km/h 56% 0 mm
17:29 26.4 °C 17.2 °C 1006.7 hPa NE 6.4 km/h 12.9 km/h 57% 0 mm
17:30 26.4 °C 17.2 °C 1006.7 hPa NNE 6.4 km/h 9.7 km/h 57% 0 mm
17:34 26.3 °C 16.8 °C 1006.7 hPa NNW 3.2 km/h 12.9 km/h 56% 0 mm
17:39 26.3 °C 16.8 °C 1006.7 hPa NNW 11.3 km/h 14.5 km/h 56% 0 mm
17:44 26.3 °C 15.7 °C 1006.7 hPa NNW 11.3 km/h 19.3 km/h 52% 0 mm
17:49 26.2 °C 16.2 °C 1006.3 hPa ENE 12.9 km/h 16.1 km/h 54% 0 mm
17:54 26.1 °C 16.3 °C 1006.3 hPa NNE 8 km/h 14.5 km/h 55% 0 mm
17:59 26.1 °C 15.4 °C 1006.3 hPa NNE 11.3 km/h 14.5 km/h 52% 0 mm
18:00 26.1 °C 16.3 °C 1006.3 hPa NE 8 km/h 14.5 km/h 55% 0 mm
18:04 26.1 °C 16.1 °C 1006.3 hPa NNW 4.8 km/h 12.9 km/h 54% 0 mm
18:09 26.1 °C 16.1 °C 1006.3 hPa North 8 km/h 14.5 km/h 54% 0 mm
18:14 26.1 °C 16.1 °C 1006.3 hPa North 3.2 km/h 14.5 km/h 54% 0 mm
18:19 25.9 °C 16.5 °C 1006.7 hPa NNE 4.8 km/h 17.7 km/h 56% 0 mm
18:24 25.9 °C 15.7 °C 1006.7 hPa North 8 km/h 19.3 km/h 53% 0 mm
18:29 25.9 °C 16.2 °C 1006.7 hPa NE 16.1 km/h 16.1 km/h 55% 0 mm
18:30 25.9 °C 16.2 °C 1006.7 hPa NNE 8 km/h 16.1 km/h 55% 0 mm
18:34 25.8 °C 16.1 °C 1006.7 hPa West 8 km/h 11.3 km/h 55% 0 mm
18:39 25.3 °C 15.4 °C 1006.7 hPa North 9.7 km/h 16.1 km/h 54% 0 mm
18:44 25.4 °C 15.1 °C 1006.7 hPa North 6.4 km/h 14.5 km/h 53% 0 mm
18:49 25.6 °C 15 °C 1006.7 hPa North 9.7 km/h 22.5 km/h 52% 0 mm
18:54 25.6 °C 15.6 °C 1007 hPa NNE 9.7 km/h 14.5 km/h 54% 0 mm
18:59 25.5 °C 15.8 °C 1007 hPa NNW 6.4 km/h 9.7 km/h 55% 0 mm
19:00 25.5 °C 16.1 °C 1007 hPa North 9.7 km/h 14.5 km/h 56% 0 mm
19:04 25.4 °C 16.1 °C 1007 hPa NNW 4.8 km/h 14.5 km/h 56% 0 mm
19:09 25.4 °C 15.4 °C 1007 hPa NNE 9.7 km/h 14.5 km/h 54% 0 mm
19:14 25.4 °C 15.1 °C 1007 hPa NNW 8 km/h 12.9 km/h 53% 0 mm
19:19 25.4 °C 16.1 °C 1006.7 hPa North 4.8 km/h 9.7 km/h 56% 0 mm
19:24 25.4 °C 16 °C 1007 hPa NNW 3.2 km/h 11.3 km/h 56% 0 mm
19:29 25.3 °C 15.6 °C 1007 hPa NNE 6.4 km/h 12.9 km/h 55% 0 mm
19:30 25.3 °C 15.6 °C 1006.7 hPa North 6.4 km/h 16.1 km/h 55% 0 mm
19:34 25.2 °C 15.5 °C 1007 hPa North 6.4 km/h 12.9 km/h 55% 0 mm
19:39 25.1 °C 15.9 °C 1007 hPa NNE 9.7 km/h 9.7 km/h 57% 0 mm
19:44 24.9 °C 14.9 °C 1007 hPa NW 9.7 km/h 16.1 km/h 54% 0 mm
19:49 24.7 °C 15.1 °C 1007 hPa North 3.2 km/h 9.7 km/h 55% 0 mm
19:54 24.6 °C 15.2 °C 1007 hPa NNE 3.2 km/h 9.7 km/h 56% 0 mm
19:59 24.4 °C 15.4 °C 1007 hPa North 1.6 km/h 6.4 km/h 57% 0 mm
20:00 24.4 °C 15.4 °C 1007 hPa NNW 4.8 km/h 8 km/h 57% 0 mm
20:04 24.4 °C 15.6 °C 1006.7 hPa North 6.4 km/h 11.3 km/h 58% 0 mm
20:09 24.2 °C 15.2 °C 1007 hPa NNE 3.2 km/h 9.7 km/h 57% 0 mm
20:14 24 °C 15.2 °C 1007 hPa NNE 8 km/h 16.1 km/h 58% 0 mm
20:19 23.8 °C 15.3 °C 1007.3 hPa North 9.7 km/h 9.7 km/h 59% 0 mm
20:24 23.7 °C 14.9 °C 1007.3 hPa North 8 km/h 11.3 km/h 58% 0 mm
20:29 23.5 °C 14.8 °C 1007.3 hPa NNE 3.2 km/h 11.3 km/h 58% 0 mm
20:30 23.4 °C 14.7 °C 1007.3 hPa North 6.4 km/h 11.3 km/h 58% 0 mm
20:34 23.3 °C 14.9 °C 1007.3 hPa NNW 3.2 km/h 8 km/h 59% 0 mm
20:39 23.1 °C 14.9 °C 1007 hPa North 3.2 km/h 6.4 km/h 60% 0 mm
20:44 22.8 °C 14.7 °C 1007.3 hPa NNW 6.4 km/h 6.4 km/h 60% 0 mm
20:49 22.6 °C 14.4 °C 1007.3 hPa NNW 4.8 km/h 11.3 km/h 60% 0 mm
20:55 22.3 °C 14.4 °C 1007.3 hPa NNE 3.2 km/h 11.3 km/h 61% 0 mm
21:00 22 °C 14.4 °C 1007.3 hPa NW 4.8 km/h 8 km/h 62% 0 mm
21:05 21.7 °C 14.4 °C 1007.3 hPa NNW 3.2 km/h 6.4 km/h 63% 0 mm
21:10 21.6 °C 14.3 °C 1007.7 hPa NNE 3.2 km/h 11.3 km/h 63% 0 mm
21:15 21.4 °C 14.6 °C 1007.7 hPa North 8 km/h 8 km/h 65% 0 mm
21:26 20.9 °C 14.8 °C 1007.7 hPa NNE 4.8 km/h 4.8 km/h 68% 0 mm
21:31 20.7 °C 14.8 °C 1008 hPa North 3.2 km/h 6.4 km/h 69% 0 mm
21:36 20.5 °C 14.8 °C 1008 hPa NNW 3.2 km/h 4.8 km/h 70% 0 mm
21:42 20.3 °C 14.9 °C 1008 hPa NNW 1.6 km/h 6.4 km/h 71% 0 mm
21:47 20.2 °C 14.8 °C 1008.4 hPa NNE 1.6 km/h 4.8 km/h 71% 0 mm
21:52 20.1 °C 14.8 °C 1008.4 hPa NNW 3.2 km/h 6.4 km/h 72% 0 mm
21:57 19.9 °C 14.7 °C 1008.4 hPa North 3.2 km/h 6.4 km/h 72% 0 mm
22:02 19.8 °C 14.7 °C 1008.4 hPa Calm   3.2 km/h 72% 0 mm
22:07 19.7 °C 14.7 °C 1008.4 hPa NNE 1.6 km/h 3.2 km/h 73% 0 mm
22:12 19.7 °C 14.7 °C 1008.4 hPa Calm   3.2 km/h 73% 0 mm
22:17 19.6 °C 14.6 °C 1008.7 hPa Calm   1.6 km/h 73% 0 mm
22:22 19.4 °C 14.6 °C 1008.7 hPa NNE 1.6 km/h 1.6 km/h 74% 0 mm
22:27 19.3 °C 14.6 °C 1008.7 hPa North 1.6 km/h 1.6 km/h 74% 0 mm
22:33 19.1 °C 14.6 °C 1009 hPa Calm   1.6 km/h 75% 0 mm
22:38 19 °C 14.4 °C 1009 hPa North 1.6 km/h 4.8 km/h 75% 0 mm
22:43 19 °C 14.4 °C 1009 hPa North 1.6 km/h 3.2 km/h 75% 0 mm
22:48 19 °C 14.4 °C 1009 hPa NNW 3.2 km/h 4.8 km/h 75% 0 mm
22:53 19 °C 14.4 °C 1009.4 hPa NNW 3.2 km/h 8 km/h 75% 0 mm
22:58 18.9 °C 14.4 °C 1009.4 hPa NNE 3.2 km/h 6.4 km/h 75% 0 mm
23:03 19 °C 14.3 °C 1009.4 hPa NNE 3.2 km/h 6.4 km/h 74% 0 mm
23:08 19 °C 14.3 °C 1009.4 hPa NNE 6.4 km/h 8 km/h 74% 0 mm
23:13 19 °C 14.1 °C 1009.4 hPa NE 4.8 km/h 4.8 km/h 73% 0 mm
23:18 18.9 °C 14 °C 1009.4 hPa North 3.2 km/h 6.4 km/h 73% 0 mm
23:23 18.8 °C 13.9 °C 1009.4 hPa NNE 4.8 km/h 6.4 km/h 73% 0 mm
23:28 18.8 °C 13.8 °C 1009.4 hPa NNE 4.8 km/h 9.7 km/h 73% 0 mm
23:33 18.7 °C 13.8 °C 1009.4 hPa NE 3.2 km/h 6.4 km/h 73% 0 mm
23:38 18.7 °C 13.7 °C 1009.7 hPa North 3.2 km/h 6.4 km/h 73% 0 mm
23:43 18.6 °C 13.6 °C 1009.7 hPa NNE 6.4 km/h 6.4 km/h 73% 0 mm
23:49 18.4 °C 13.5 °C 1009.7 hPa North 1.6 km/h 6.4 km/h 73% 0 mm
23:54 18.4 °C 13.5 °C 1009.7 hPa North 3.2 km/h 6.4 km/h 73% 0 mm
23:59 18.4 °C 13.4 °C 1009.7 hPa Calm   4.8 km/h 73% 0 mm
Compliments of Weather Underground